createdAt,value
2022-12-28T00:03:57.505Z,100701.44
2022-12-28T00:09:26.359Z,100718.16
2022-12-28T00:14:51.602Z,100698.00
2022-12-28T00:20:15.305Z,100699.63
2022-12-28T00:25:38.221Z,100712.06
2022-12-28T00:31:02.746Z,100726.38
2022-12-28T00:37:10.691Z,100726.16
2022-12-28T00:42:09.105Z,100726.22
2022-12-28T00:47:35.690Z,100731.94
2022-12-28T00:52:59.123Z,100722.38
2022-12-28T00:58:22.143Z,100736.47
2022-12-28T01:03:47.965Z,100729.75
2022-12-28T01:09:11.143Z,100718.84
2022-12-28T01:14:34.946Z,100710.47
2022-12-28T01:20:00.689Z,100717.34
2022-12-28T01:25:24.329Z,100719.88
2022-12-28T01:30:47.987Z,100725.88
2022-12-28T01:36:15.822Z,100728.25
2022-12-28T01:41:41.677Z,100724.53
2022-12-28T01:47:09.431Z,100731.56
2022-12-28T01:52:44.705Z,100733.75
2022-12-28T01:58:13.375Z,100743.31
2022-12-28T02:03:37.304Z,100755.34
2022-12-28T02:09:11.451Z,100766.41
2022-12-28T02:14:35.764Z,100772.78
2022-12-28T02:20:05.727Z,100776.47
2022-12-28T02:26:32.441Z,100778.44
2022-12-28T02:32:12.399Z,100797.75
2022-12-28T02:37:45.866Z,100806.97
2022-12-28T02:43:15.417Z,100809.97
2022-12-28T02:49:01.807Z,100817.88
2022-12-28T02:55:12.401Z,100819.53
2022-12-28T03:00:54.167Z,100833.28
2022-12-28T03:06:48.966Z,100834.47
2022-12-28T03:12:20.743Z,100843.53
2022-12-28T03:18:05.296Z,100849.72
2022-12-28T03:23:49.703Z,100849.22
2022-12-28T03:29:35.690Z,100848.47
2022-12-28T03:34:59.954Z,100856.91
2022-12-28T03:40:30.893Z,100857.84
2022-12-28T03:45:58.688Z,100874.63
2022-12-28T03:51:24.968Z,100873.63
2022-12-28T03:56:57.821Z,100882.34
2022-12-28T04:02:25.823Z,100888.84
2022-12-28T04:07:48.853Z,100903.41
2022-12-28T04:13:13.984Z,100899.81
2022-12-28T04:18:46.031Z,100906.19
2022-12-28T04:24:10.066Z,100908.81
2022-12-28T04:29:40.595Z,100911.47
2022-12-28T04:35:20.040Z,100921.22
2022-12-28T04:40:51.311Z,100933.50
2022-12-28T04:46:21.979Z,100930.81
2022-12-28T04:51:51.870Z,100932.81
2022-12-28T04:57:21.296Z,100946.19
2022-12-28T05:02:51.710Z,100943.75
2022-12-28T05:08:20.565Z,100942.91
2022-12-28T05:13:49.760Z,100942.91
2022-12-28T05:19:19.811Z,100960.75
2022-12-28T05:24:48.716Z,100965.03
2022-12-28T05:30:17.754Z,100971.84
2022-12-28T05:35:47.797Z,100981.19
2022-12-28T05:41:18.408Z,100977.16
2022-12-28T05:46:47.462Z,100981.44
2022-12-28T05:52:17.489Z,100997.97
2022-12-28T05:57:46.698Z,101012.25
2022-12-28T06:03:15.617Z,101018.25
2022-12-28T06:08:47.549Z,101021.16
2022-12-28T06:14:16.604Z,101029.81
2022-12-28T06:19:45.519Z,101040.91
2022-12-28T06:25:15.923Z,101057.00
2022-12-28T06:30:52.205Z,101046.06
2022-12-28T06:36:23.889Z,101066.13
2022-12-28T06:41:53.947Z,101053.47
2022-12-28T06:47:23.583Z,101061.19
2022-12-28T06:52:52.442Z,101057.22
2022-12-28T06:58:23.128Z,101069.16
2022-12-28T07:03:56.481Z,101083.25
2022-12-28T07:09:25.348Z,101084.94
2022-12-28T11:31:18.827Z,101270.44
2022-12-28T11:36:45.027Z,101269.25
2022-12-28T11:42:37.765Z,101273.78
2022-12-28T11:48:40.803Z,101290.41
2022-12-28T11:54:37.748Z,101293.63
2022-12-28T12:00:49.151Z,101309.63
2022-12-28T12:06:17.264Z,101311.53
2022-12-28T12:11:47.668Z,101327.16
2022-12-28T12:17:17.949Z,101334.31
2022-12-28T12:22:52.067Z,101330.00
2022-12-28T12:28:28.855Z,101337.22
2022-12-28T12:34:05.070Z,101346.50
2022-12-28T12:39:45.146Z,101346.13
2022-12-28T12:45:19.054Z,101368.78
2022-12-28T12:51:18.003Z,101372.34
2022-12-28T12:56:55.329Z,101379.53
2022-12-28T13:02:45.283Z,101382.50
2022-12-28T13:08:22.646Z,101399.13
2022-12-28T13:13:54.031Z,101410.75
2022-12-28T13:19:25.475Z,101413.66
2022-12-28T13:24:54.975Z,101422.81
2022-12-28T13:30:22.838Z,101435.56
2022-12-28T13:35:47.044Z,101437.09
2022-12-28T13:41:24.950Z,101445.00
2022-12-28T13:47:01.612Z,101452.44
2022-12-28T13:52:35.384Z,101465.16
2022-12-28T13:58:11.434Z,101466.41
2022-12-28T14:03:46.434Z,101469.50
2022-12-28T14:09:16.721Z,101470.19
2022-12-28T14:14:46.343Z,101467.19
2022-12-28T14:20:17.726Z,101473.88
2022-12-28T14:25:46.596Z,101483.59
2022-12-28T14:31:23.044Z,101494.44
2022-12-28T14:36:55.660Z,101506.56
2022-12-28T14:42:27.651Z,101511.22
2022-12-28T14:47:57.468Z,101525.78
2022-12-28T14:53:28.998Z,101524.97
2022-12-28T14:59:01.212Z,101532.63
2022-12-28T15:04:37.784Z,101536.59
2022-12-28T15:10:09.410Z,101538.53
2022-12-28T15:15:38.972Z,101552.13
2022-12-28T15:21:08.332Z,101549.31
2022-12-28T15:26:39.471Z,101554.97
2022-12-28T15:32:08.972Z,101564.31
2022-12-28T15:37:38.066Z,101566.59
2022-12-28T15:43:08.227Z,101575.06
2022-12-28T15:48:36.953Z,101570.38
2022-12-28T15:54:05.962Z,101585.50
2022-12-28T15:59:36.288Z,101591.72
2022-12-28T16:05:05.085Z,101595.44
2022-12-28T20:13:10.347Z,101778.47
2022-12-28T20:18:39.729Z,101788.94
2022-12-28T20:24:08.747Z,101778.97
2022-12-28T20:29:38.919Z,101796.75
2022-12-28T20:35:08.241Z,101798.66
2022-12-28T20:40:33.819Z,101816.97
2022-12-28T20:45:58.770Z,101812.25
2022-12-28T20:51:22.844Z,101816.75
2022-12-28T20:56:53.935Z,101814.22
2022-12-28T21:02:25.098Z,101813.72
2022-12-28T21:07:53.758Z,101823.16
2022-12-28T21:13:21.941Z,101827.28
2022-12-28T21:18:50.301Z,101829.22
2022-12-28T21:24:19.114Z,101816.00
2022-12-28T21:29:45.858Z,101821.47
2022-12-28T21:35:16.398Z,101827.81
2022-12-28T21:40:42.872Z,101830.94
2022-12-28T21:46:13.213Z,101842.72
2022-12-28T21:51:42.940Z,101844.28
2022-12-28T21:57:07.161Z,101832.88
2022-12-28T22:03:04.575Z,101823.78
2022-12-28T22:08:47.546Z,101829.25
2022-12-28T22:14:11.560Z,101834.88
2022-12-28T22:19:37.069Z,101832.56
2022-12-28T22:25:07.872Z,101838.06
2022-12-28T22:30:38.761Z,101828.13
2022-12-28T22:36:12.163Z,101836.31
2022-12-28T22:41:42.294Z,101830.69
2022-12-28T22:47:11.799Z,101824.91
2022-12-28T22:52:35.298Z,101828.50
2022-12-28T22:58:06.191Z,101816.16
2022-12-28T23:03:32.408Z,101826.06
2022-12-28T23:09:01.682Z,101835.78
2022-12-28T23:14:44.849Z,101846.44
2022-12-28T23:20:29.660Z,101842.81
2022-12-28T23:26:19.148Z,101840.63
2022-12-28T23:31:46.741Z,101856.13
2022-12-28T23:37:15.755Z,101850.09
2022-12-28T23:42:44.660Z,101855.88
2022-12-28T23:48:12.356Z,101859.47
2022-12-28T23:53:41.975Z,101863.97
2022-12-28T23:59:10.918Z,101877.50
